createdAt,value
2019-01-15T00:00:53.701Z,100686.43
2019-01-15T00:03:21.722Z,100684.55
2019-01-15T00:05:49.981Z,100688.23
2019-01-15T00:08:18.053Z,100684.13
2019-01-15T00:10:46.410Z,100676.12
2019-01-15T00:13:14.466Z,100684.98
2019-01-15T00:15:45.554Z,100682.28
2019-01-15T00:18:13.510Z,100675.69
2019-01-15T00:20:41.903Z,100677.92
2019-01-15T00:23:10.516Z,100682.75
2019-01-15T00:25:38.710Z,100688.98
2019-01-15T00:28:07.950Z,100695.94
2019-01-15T00:30:36.032Z,100696.77
2019-01-15T00:33:04.160Z,100696.42
2019-01-15T00:35:32.201Z,100690.21
2019-01-15T00:38:00.262Z,100691.39
2019-01-15T00:40:28.300Z,100701.17
2019-01-15T00:42:56.754Z,100700.14
2019-01-15T00:45:24.820Z,100693.91
2019-01-15T00:47:52.883Z,100692.02
2019-01-15T00:50:20.944Z,100693.32
2019-01-15T00:52:48.985Z,100690.48
2019-01-15T00:55:17.006Z,100688.72
2019-01-15T00:57:45.103Z,100698.62
2019-01-15T01:00:17.137Z,100702.75
2019-01-15T01:02:45.314Z,100698.77
2019-01-15T01:05:14.200Z,100698.19
2019-01-15T01:07:42.353Z,100699.37
2019-01-15T01:10:10.882Z,100694.53
2019-01-15T01:12:38.954Z,100692.30
2019-01-15T01:15:09.501Z,100696.92
2019-01-15T01:17:37.550Z,100694.22
2019-01-15T01:20:07.754Z,100694.69
2019-01-15T01:22:35.820Z,100699.05
2019-01-15T01:25:05.569Z,100710.95
2019-01-15T01:27:34.121Z,100715.11
2019-01-15T01:30:02.551Z,100714.05
2019-01-15T01:32:30.611Z,100711.81
2019-01-15T01:34:58.622Z,100716.88
2019-01-15T01:37:26.657Z,100719.86
2019-01-15T01:39:54.702Z,100722.45
2019-01-15T01:42:29.447Z,100730.12
2019-01-15T01:44:54.153Z,100730.12
2019-01-15T01:47:22.171Z,100738.25
2019-01-15T01:49:50.223Z,100747.09
2019-01-15T01:52:18.269Z,100743.12
2019-01-15T01:54:46.439Z,100743.83
2019-01-15T01:57:14.867Z,100744.06
2019-01-15T01:59:42.925Z,100749.52
2019-01-15T02:02:10.977Z,100752.34
2019-01-15T02:04:39.046Z,100754.47
2019-01-15T02:07:07.197Z,100752.11
2019-01-15T02:09:35.261Z,100756.86
2019-01-15T02:12:03.273Z,100752.11
2019-01-15T02:14:31.324Z,100757.77
2019-01-15T02:16:59.501Z,100752.82
2019-01-15T02:19:27.547Z,100762.13
2019-01-15T02:21:55.583Z,100766.02
2019-01-15T02:24:24.838Z,100758.98
2019-01-15T02:26:52.837Z,100759.45
2019-01-15T02:29:20.879Z,100762.96
2019-01-15T02:31:48.911Z,100759.77
2019-01-15T02:34:16.972Z,100758.36
2019-01-15T02:36:44.999Z,100762.96
2019-01-15T02:39:13.028Z,100763.78
2019-01-15T02:41:41.060Z,100766.77
2019-01-15T02:44:09.167Z,100754.63
2019-01-15T02:46:37.476Z,100762.87
2019-01-15T02:49:06.199Z,100762.41
2019-01-15T02:51:34.234Z,100758.59
2019-01-15T02:54:02.265Z,100756.95
2019-01-15T02:56:30.308Z,100754.23
2019-01-15T02:58:58.379Z,100750.55
2019-01-15T03:01:26.449Z,100743.36
2019-01-15T03:03:54.455Z,100743.00
2019-01-15T03:06:23.683Z,100744.30
2019-01-15T03:08:51.722Z,100743.36
2019-01-15T03:11:19.972Z,100743.83
2019-01-15T03:13:47.983Z,100743.36
2019-01-15T03:16:16.037Z,100745.36
2019-01-15T03:18:44.096Z,100743.95
2019-01-15T03:21:12.106Z,100737.84
2019-01-15T03:23:40.173Z,100742.21
2019-01-15T03:26:08.196Z,100746.45
2019-01-15T03:28:36.254Z,100745.16
2019-01-15T03:31:04.300Z,100741.63
2019-01-15T03:33:32.326Z,100736.08
2019-01-15T03:36:00.340Z,100742.21
2019-01-15T03:38:28.385Z,100745.63
2019-01-15T03:40:56.443Z,100746.92
2019-01-15T03:43:24.477Z,100745.72
2019-01-15T03:45:52.513Z,100749.98
2019-01-15T03:48:20.537Z,100745.00
2019-01-15T03:50:48.580Z,100747.36
2019-01-15T03:53:18.006Z,100742.64
2019-01-15T03:55:46.039Z,100740.05
2019-01-15T03:58:14.108Z,100737.08
2019-01-15T04:00:42.175Z,100738.84
2019-01-15T04:03:10.529Z,100732.83
2019-01-15T04:05:38.556Z,100740.14
2019-01-15T04:08:06.933Z,100736.63
2019-01-15T04:10:34.971Z,100740.41
2019-01-15T04:13:11.011Z,100739.82
2019-01-15T04:15:33.686Z,100736.63
2019-01-15T04:18:01.720Z,100739.14
2019-01-15T04:20:29.737Z,100739.23
2019-01-15T04:22:57.781Z,100736.28
2019-01-15T04:25:25.837Z,100732.39
2019-01-15T04:27:54.910Z,100730.62
2019-01-15T04:30:26.271Z,100728.86
2019-01-15T04:32:54.329Z,100726.17
2019-01-15T04:35:22.338Z,100722.28
2019-01-15T04:37:50.371Z,100723.47
2019-01-15T04:40:20.240Z,100722.99
2019-01-15T04:42:50.505Z,100725.00
2019-01-15T04:45:24.795Z,100722.99
2019-01-15T04:47:52.937Z,100718.63
2019-01-15T04:50:20.952Z,100706.96
2019-01-15T04:53:01.099Z,100713.45
2019-01-15T04:55:29.300Z,100718.28
2019-01-15T04:57:57.412Z,100713.56
2019-01-15T05:00:25.438Z,100714.39
2019-01-15T05:02:55.163Z,100710.50
2019-01-15T05:05:23.247Z,100708.26
2019-01-15T05:07:51.329Z,100712.38
2019-01-15T05:10:19.361Z,100707.75
2019-01-15T05:12:47.373Z,100710.47
2019-01-15T05:15:15.924Z,100707.41
2019-01-15T05:17:43.962Z,100711.30
2019-01-15T05:20:14.008Z,100702.33
2019-01-15T05:22:42.026Z,100701.86
2019-01-15T05:25:14.071Z,100688.42
2019-01-15T05:27:42.122Z,100692.55
2019-01-15T05:30:21.057Z,100692.94
2019-01-15T05:32:49.054Z,100690.34
2019-01-15T05:35:17.429Z,100689.95
2019-01-15T05:37:45.442Z,100688.30
2019-01-15T05:40:13.680Z,100677.93
2019-01-15T05:42:41.716Z,100685.16
2019-01-15T05:45:14.890Z,100682.56
2019-01-15T05:47:43.304Z,100676.90
2019-01-15T05:50:15.219Z,100678.20
2019-01-15T05:52:43.234Z,100682.91
2019-01-15T05:55:11.301Z,100690.22
2019-01-15T05:57:39.342Z,100701.66
2019-01-15T06:00:08.198Z,100713.59
2019-01-15T06:02:36.270Z,100714.53
2019-01-15T06:05:06.037Z,100719.88
2019-01-15T06:07:34.677Z,100724.47
2019-01-15T06:10:04.154Z,100724.27
2019-01-15T06:12:32.167Z,100725.44
2019-01-15T06:15:00.224Z,100720.48
2019-01-15T06:17:28.278Z,100723.43
2019-01-15T06:19:56.310Z,100735.94
2019-01-15T06:22:25.742Z,100735.02
2019-01-15T06:24:53.784Z,100737.84
2019-01-15T06:27:22.923Z,100734.78
2019-01-15T06:29:50.947Z,100731.72
2019-01-15T06:32:18.966Z,100739.02
2019-01-15T06:34:46.955Z,100741.15
2019-01-15T06:37:14.979Z,100742.33
2019-01-15T06:39:43.016Z,100742.23
2019-01-15T06:42:11.070Z,100738.82
2019-01-15T06:44:39.110Z,100731.59
2019-01-15T06:47:07.206Z,100733.48
2019-01-15T06:49:35.258Z,100735.37
2019-01-15T06:52:03.433Z,100736.17
2019-01-15T06:54:31.524Z,100731.45
2019-01-15T06:56:59.546Z,100730.04
2019-01-15T06:59:27.615Z,100729.21
2019-01-15T07:01:55.628Z,100735.94
2019-01-15T07:04:25.279Z,100735.49
2019-01-15T07:06:53.280Z,100740.56
2019-01-15T07:09:21.333Z,100741.98
2019-01-15T07:11:49.391Z,100749.77
2019-01-15T07:14:17.446Z,100744.58
2019-01-15T07:16:45.788Z,100751.15
2019-01-15T07:19:13.826Z,100737.47
2019-01-15T07:21:42.067Z,100740.41
2019-01-15T07:24:10.116Z,100746.91
2019-01-15T07:26:38.164Z,100741.24
2019-01-15T07:29:06.256Z,100732.63
2019-01-15T07:31:34.300Z,100732.98
2019-01-15T07:34:02.370Z,100733.45
2019-01-15T07:36:30.405Z,100728.63
2019-01-15T07:38:58.452Z,100736.41
2019-01-15T07:41:26.515Z,100737.70
2019-01-15T07:43:54.653Z,100744.58
2019-01-15T07:46:23.970Z,100740.69
2019-01-15T07:48:52.251Z,100746.31
2019-01-15T07:51:20.320Z,100746.31
2019-01-15T07:53:48.339Z,100749.85
2019-01-15T07:56:16.397Z,100746.43
2019-01-15T07:58:44.460Z,100744.30
2019-01-15T08:01:12.961Z,100742.89
2019-01-15T08:03:41.001Z,100750.59
2019-01-15T08:06:09.007Z,100750.47
2019-01-15T08:08:37.044Z,100757.55
2019-01-15T08:11:05.217Z,100757.45
2019-01-15T08:13:33.404Z,100759.94
2019-01-15T08:16:01.444Z,100760.28
2019-01-15T08:18:29.493Z,100752.53
2019-01-15T08:20:57.555Z,100763.41
2019-01-15T08:23:25.636Z,100773.08
2019-01-15T08:25:53.679Z,100765.44
2019-01-15T08:28:21.710Z,100767.70
2019-01-15T08:30:49.742Z,100772.21
2019-01-15T08:33:17.755Z,100773.18
2019-01-15T08:35:45.806Z,100766.56
2019-01-15T08:38:14.832Z,100767.39
2019-01-15T08:40:42.991Z,100770.09
2019-01-15T08:43:11.269Z,100768.71
2019-01-15T08:45:39.317Z,100756.31
2019-01-15T08:48:14.180Z,100766.95
2019-01-15T08:50:42.236Z,100766.59
2019-01-15T08:53:11.563Z,100755.37
2019-01-15T08:55:39.615Z,100755.52
2019-01-15T08:58:07.685Z,100760.34
2019-01-15T09:00:35.732Z,100756.70
2019-01-15T09:03:04.198Z,100756.47
2019-01-15T09:05:32.254Z,100748.09
2019-01-15T09:08:00.253Z,100756.13
2019-01-15T09:10:28.321Z,100750.34
2019-01-15T09:12:56.429Z,100749.39
2019-01-15T09:15:25.326Z,100744.53
2019-01-15T09:17:53.369Z,100744.48
2019-01-15T09:20:21.415Z,100743.65
2019-01-15T09:22:49.671Z,100747.05
2019-01-15T09:25:17.711Z,100745.13
2019-01-15T09:27:45.916Z,100740.82
2019-01-15T09:30:17.490Z,100737.36
2019-01-15T09:32:45.685Z,100733.65
2019-01-15T09:35:13.708Z,100740.22
2019-01-15T09:37:43.838Z,100746.13
2019-01-15T09:40:15.314Z,100745.59
2019-01-15T09:42:44.355Z,100753.38
2019-01-15T09:45:14.941Z,100753.34
2019-01-15T09:48:09.702Z,100750.98
2019-01-15T09:50:37.787Z,100756.58
2019-01-15T09:53:06.126Z,100752.64
2019-01-15T09:55:35.460Z,100758.78
2019-01-15T09:58:05.559Z,100757.72
2019-01-15T10:00:33.642Z,100756.52
2019-01-15T10:03:01.720Z,100756.73
2019-01-15T10:05:29.770Z,100756.34
2019-01-15T10:07:57.895Z,100763.07
2019-01-15T10:10:27.065Z,100757.58
2019-01-15T10:12:55.154Z,100758.30
2019-01-15T10:15:23.203Z,100759.47
2019-01-15T10:17:51.248Z,100755.77
2019-01-15T10:20:19.509Z,100762.66
2019-01-15T10:22:47.938Z,100756.72
2019-01-15T10:25:19.763Z,100764.06
2019-01-15T10:27:49.092Z,100762.28
2019-01-15T10:30:35.581Z,100762.17
2019-01-15T10:33:21.483Z,100762.52
2019-01-15T10:35:52.192Z,100763.10
2019-01-15T10:38:21.066Z,100758.74
2019-01-15T10:40:49.943Z,100757.16
2019-01-15T10:43:17.991Z,100755.96
2019-01-15T10:45:46.024Z,100751.09
2019-01-15T10:48:14.104Z,100748.48
2019-01-15T10:50:42.144Z,100745.59
2019-01-15T10:53:10.240Z,100737.16
2019-01-15T10:55:38.274Z,100729.91
2019-01-15T10:58:06.303Z,100738.30
2019-01-15T11:00:34.532Z,100731.30
2019-01-15T11:03:02.597Z,100727.16
2019-01-15T11:05:30.602Z,100725.27
2019-01-15T11:07:58.636Z,100718.27
2019-01-15T11:10:28.193Z,100717.89
2019-01-15T11:12:56.249Z,100718.27
2019-01-15T11:15:24.297Z,100710.69
2019-01-15T11:17:52.384Z,100708.22
2019-01-15T11:20:20.661Z,100703.00
2019-01-15T11:22:48.818Z,100700.53
2019-01-15T11:25:17.815Z,100691.52
2019-01-15T11:27:45.876Z,100695.57
2019-01-15T11:30:14.074Z,100687.55
2019-01-15T11:32:42.051Z,100683.36
2019-01-15T11:35:10.217Z,100681.56
2019-01-15T11:37:38.763Z,100676.24
2019-01-15T11:40:07.002Z,100676.24
2019-01-15T11:42:35.133Z,100673.02
2019-01-15T11:45:04.184Z,100670.20
2019-01-15T11:47:32.229Z,100669.02
2019-01-15T11:50:00.200Z,100660.84
2019-01-15T11:52:28.988Z,100661.08
2019-01-15T11:54:56.994Z,100665.33
2019-01-15T11:57:25.066Z,100653.94
2019-01-15T11:59:53.112Z,100653.31
2019-01-15T12:02:36.245Z,100658.28
2019-01-15T12:05:40.591Z,100652.09
2019-01-15T12:08:30.738Z,100653.89
2019-01-15T12:11:16.690Z,100643.66
2019-01-15T12:14:10.074Z,100646.34
2019-01-15T12:16:57.677Z,100643.80
2019-01-15T12:19:41.379Z,100641.33
2019-01-15T12:22:44.195Z,100637.02
2019-01-15T12:25:27.900Z,100633.78
2019-01-15T12:28:18.689Z,100634.13
2019-01-15T12:31:03.467Z,100635.17
2019-01-15T12:33:49.508Z,100633.10
2019-01-15T12:36:35.353Z,100630.69
2019-01-15T12:39:32.247Z,100629.38
2019-01-15T12:42:18.953Z,100630.49
2019-01-15T12:45:06.830Z,100626.05
2019-01-15T12:47:54.962Z,100625.56
2019-01-15T12:50:31.456Z,100622.47
2019-01-15T12:53:17.373Z,100631.05
2019-01-15T12:56:11.946Z,100624.10
2019-01-15T12:59:00.363Z,100622.88
2019-01-15T13:01:39.929Z,100616.69
2019-01-15T13:04:36.230Z,100615.12
2019-01-15T13:07:26.901Z,100610.36
2019-01-15T13:10:27.277Z,100607.98
2019-01-15T13:13:14.098Z,100606.67
2019-01-15T13:16:08.280Z,100607.09
2019-01-15T13:19:14.998Z,100605.78
2019-01-15T13:22:06.320Z,100603.22
2019-01-15T13:24:53.151Z,100603.22
2019-01-15T13:27:31.705Z,100600.47
2019-01-15T13:30:28.963Z,100598.08
2019-01-15T13:33:16.360Z,100594.20
2019-01-15T13:36:08.906Z,100592.90
2019-01-15T13:38:56.988Z,100598.83
2019-01-15T13:41:45.610Z,100598.83
2019-01-15T13:44:46.386Z,100599.02
2019-01-15T13:47:35.778Z,100587.83
2019-01-15T13:50:16.726Z,100598.12
2019-01-15T13:53:03.794Z,100597.34
2019-01-15T13:55:50.072Z,100590.22
2019-01-15T13:58:44.069Z,100593.42
2019-01-15T14:01:37.056Z,100591.94
2019-01-15T14:04:23.180Z,100597.64
2019-01-15T14:07:19.771Z,100594.35
2019-01-15T14:10:07.413Z,100589.25
2019-01-15T14:13:07.317Z,100593.39
2019-01-15T14:16:00.896Z,100592.01
2019-01-15T14:18:55.673Z,100595.14
2019-01-15T14:21:55.251Z,100590.59
2019-01-15T14:24:41.476Z,100594.39
2019-01-15T14:27:43.985Z,100593.84
2019-01-15T14:30:40.023Z,100589.59
2019-01-15T14:33:33.316Z,100592.01
2019-01-15T14:36:19.681Z,100596.81
2019-01-15T14:39:22.809Z,100596.19
2019-01-15T14:42:19.232Z,100593.09
2019-01-15T14:45:09.978Z,100593.09
2019-01-15T14:48:06.811Z,100592.94
2019-01-15T14:50:43.712Z,100587.61
2019-01-15T14:53:46.199Z,100593.98
2019-01-15T14:56:32.710Z,100588.12
2019-01-15T14:59:16.880Z,100589.44
2019-01-15T15:02:14.697Z,100593.02
2019-01-15T15:05:00.919Z,100592.53
2019-01-15T15:07:45.660Z,100590.22
2019-01-15T15:10:29.950Z,100594.95
2019-01-15T15:13:23.263Z,100590.00
2019-01-15T15:16:10.956Z,100589.17
2019-01-15T15:19:07.725Z,100594.73
2019-01-15T15:22:04.379Z,100582.64
2019-01-15T15:24:52.892Z,100580.52
2019-01-15T15:27:52.414Z,100579.29
2019-01-15T15:30:37.357Z,100576.64
2019-01-15T15:33:23.881Z,100570.71
2019-01-15T15:36:10.473Z,100575.11
2019-01-15T15:39:04.038Z,100575.41
2019-01-15T15:41:51.482Z,100569.96
2019-01-15T15:44:37.664Z,100572.53
2019-01-15T15:47:43.212Z,100569.58
2019-01-15T15:50:43.080Z,100573.98
2019-01-15T15:53:30.732Z,100568.54
2019-01-15T15:56:12.649Z,100564.77
2019-01-15T15:58:58.964Z,100566.56
2019-01-15T16:01:52.561Z,100562.64
2019-01-15T16:04:38.920Z,100567.86
2019-01-15T16:07:41.963Z,100565.59
2019-01-15T16:10:43.394Z,100563.76
2019-01-15T16:13:30.992Z,100564.36
2019-01-15T16:16:18.996Z,100571.17
2019-01-15T16:19:05.565Z,100565.13
2019-01-15T16:21:51.646Z,100566.92
2019-01-15T16:24:30.151Z,100562.67
2019-01-15T16:27:35.726Z,100568.34
2019-01-15T16:30:26.847Z,100568.70
2019-01-15T16:33:23.500Z,100570.61
2019-01-15T16:36:34.877Z,100569.11
2019-01-15T16:39:35.129Z,100570.08
2019-01-15T16:42:20.683Z,100566.57
2019-01-15T16:45:08.329Z,100567.34
2019-01-15T16:48:10.885Z,100569.25
2019-01-15T16:50:53.273Z,100571.03
2019-01-15T16:53:47.022Z,100574.95
2019-01-15T16:56:33.330Z,100572.63
2019-01-15T16:59:27.124Z,100578.33
2019-01-15T17:02:14.908Z,100574.90
2019-01-15T17:05:05.748Z,100577.14
2019-01-15T17:07:48.308Z,100578.44
2019-01-15T17:10:42.614Z,100577.42
2019-01-15T17:13:29.159Z,100579.69
2019-01-15T17:16:16.555Z,100578.53
2019-01-15T17:19:04.272Z,100570.23
2019-01-15T17:21:50.786Z,100565.61
2019-01-15T17:24:50.905Z,100571.64
2019-01-15T17:27:35.973Z,100571.11
2019-01-15T17:30:39.538Z,100574.00
2019-01-15T17:33:19.547Z,100569.38
2019-01-15T17:36:25.112Z,100563.00
2019-01-15T17:39:08.413Z,100567.55
2019-01-15T17:41:58.849Z,100561.56
2019-01-15T17:44:45.309Z,100562.16
2019-01-15T17:47:33.083Z,100565.73
2019-01-15T17:50:36.095Z,100562.30
2019-01-15T17:53:22.840Z,100567.17
2019-01-15T17:56:09.405Z,100560.66
2019-01-15T17:59:09.016Z,100561.34
2019-01-15T18:02:05.825Z,100562.30
2019-01-15T18:04:46.954Z,100569.44
2019-01-15T18:07:33.631Z,100575.00
2019-01-15T18:10:21.931Z,100575.20
2019-01-15T18:13:08.418Z,100578.17
2019-01-15T18:16:07.878Z,100575.91
2019-01-15T18:18:49.659Z,100573.83
2019-01-15T18:21:52.665Z,100578.94
2019-01-15T18:24:52.805Z,100578.80
2019-01-15T18:27:38.868Z,100585.17
2019-01-15T18:30:27.978Z,100575.70
2019-01-15T18:33:17.614Z,100579.28
2019-01-15T18:35:54.832Z,100582.96
2019-01-15T18:38:41.461Z,100582.63
2019-01-15T18:41:22.799Z,100582.63
2019-01-15T18:44:10.502Z,100585.38
2019-01-15T18:47:08.725Z,100578.66
2019-01-15T18:49:56.366Z,100575.82
2019-01-15T18:52:53.297Z,100579.53
2019-01-15T18:55:32.164Z,100573.98
2019-01-15T18:58:38.082Z,100571.14
2019-01-15T19:01:43.571Z,100568.20
2019-01-15T19:04:46.293Z,100567.86
2019-01-15T19:07:32.322Z,100564.42
2019-01-15T19:10:18.349Z,100561.82
2019-01-15T19:12:56.810Z,100553.80
2019-01-15T19:15:36.127Z,100562.08
2019-01-15T19:18:20.184Z,100556.66
2019-01-15T19:21:14.077Z,100561.88
2019-01-15T19:24:14.181Z,100560.23
2019-01-15T19:27:01.279Z,100555.02
2019-01-15T19:29:57.353Z,100552.66
2019-01-15T19:33:01.672Z,100550.54
2019-01-15T19:35:48.221Z,100550.54
2019-01-15T19:38:35.019Z,100542.72
2019-01-15T19:41:22.466Z,100551.64
2019-01-15T19:44:08.863Z,100547.64
2019-01-15T19:46:55.068Z,100550.53
2019-01-15T19:49:41.507Z,100542.00
2019-01-15T19:52:27.440Z,100537.75
2019-01-15T19:55:24.150Z,100540.47
2019-01-15T19:58:26.817Z,100532.94
2019-01-15T20:01:03.150Z,100536.02
2019-01-15T20:03:50.879Z,100532.16
2019-01-15T20:06:50.915Z,100537.63
2019-01-15T20:09:37.990Z,100532.84
2019-01-15T20:12:18.172Z,100530.00
2019-01-15T20:15:11.740Z,100528.98
2019-01-15T20:18:11.084Z,100533.16
2019-01-15T20:20:58.819Z,100527.86
2019-01-15T20:23:41.387Z,100530.85
2019-01-15T20:26:30.347Z,100531.61
2019-01-15T20:29:16.790Z,100522.27
2019-01-15T20:32:10.741Z,100526.78
2019-01-15T20:35:04.348Z,100527.27
2019-01-15T20:37:58.315Z,100528.84
2019-01-15T20:40:53.151Z,100526.97
2019-01-15T20:43:47.265Z,100529.00
2019-01-15T20:46:47.054Z,100534.82
2019-01-15T20:49:40.868Z,100529.27
2019-01-15T20:52:25.964Z,100528.79
2019-01-15T20:55:12.916Z,100531.53
2019-01-15T20:57:59.604Z,100533.31
2019-01-15T21:00:45.989Z,100535.68
2019-01-15T21:03:39.506Z,100531.78
2019-01-15T21:06:26.079Z,100528.83
2019-01-15T21:09:20.307Z,100533.22
2019-01-15T21:12:06.569Z,100528.48
2019-01-15T21:15:00.714Z,100526.50
2019-01-15T21:17:48.408Z,100526.50
2019-01-15T21:20:46.991Z,100524.24
2019-01-15T21:23:37.356Z,100528.69
2019-01-15T21:26:40.311Z,100523.72
2019-01-15T21:29:30.977Z,100524.41
2019-01-15T21:32:17.112Z,100522.03
2019-01-15T21:35:11.164Z,100516.83
2019-01-15T21:37:57.793Z,100512.92
2019-01-15T21:40:45.515Z,100515.98
2019-01-15T21:43:42.448Z,100513.03
2019-01-15T21:46:33.043Z,100509.47
2019-01-15T21:49:27.295Z,100510.32
2019-01-15T21:52:14.665Z,100506.62
2019-01-15T21:55:15.946Z,100509.08
2019-01-15T21:58:15.972Z,100502.57
2019-01-15T22:01:01.301Z,100504.70
2019-01-15T22:03:47.698Z,100499.01
2019-01-15T22:06:24.127Z,100495.10
2019-01-15T22:09:16.175Z,100493.70
2019-01-15T22:12:02.785Z,100494.52
2019-01-15T22:14:55.171Z,100496.64
2019-01-15T22:17:39.161Z,100497.46
2019-01-15T22:20:26.190Z,100487.19
2019-01-15T22:23:10.235Z,100486.70
2019-01-15T22:25:56.779Z,100486.33
2019-01-15T22:28:44.457Z,100484.83
2019-01-15T22:31:41.351Z,100477.77
2019-01-15T22:34:28.010Z,100474.46
2019-01-15T22:37:16.289Z,100477.34
2019-01-15T22:40:09.836Z,100477.11
2019-01-15T22:42:55.543Z,100469.09
2019-01-15T22:45:43.980Z,100465.33
2019-01-15T22:48:31.647Z,100462.24
2019-01-15T22:51:22.231Z,100471.56
2019-01-15T22:54:13.249Z,100463.89
2019-01-15T22:57:13.402Z,100458.20
2019-01-15T23:00:13.000Z,100455.59
2019-01-15T23:02:59.722Z,100452.08
2019-01-15T23:05:50.374Z,100454.96
2019-01-15T23:08:51.538Z,100450.37
2019-01-15T23:11:48.193Z,100444.69
2019-01-15T23:14:26.998Z,100446.33
2019-01-15T23:17:13.608Z,100442.91
2019-01-15T23:19:53.753Z,100438.86
2019-01-15T23:22:47.003Z,100439.20
2019-01-15T23:25:37.311Z,100431.25
2019-01-15T23:28:21.256Z,100430.80
2019-01-15T23:31:09.822Z,100434.23
2019-01-15T23:33:46.879Z,100432.45
2019-01-15T23:36:36.069Z,100432.11
2019-01-15T23:39:24.854Z,100427.48
2019-01-15T23:42:15.129Z,100420.16
2019-01-15T23:44:55.144Z,100423.59
2019-01-15T23:47:41.590Z,100409.13
2019-01-15T23:50:27.620Z,100417.31
2019-01-15T23:53:10.341Z,100404.64
2019-01-15T23:56:00.624Z,100405.45
2019-01-15T23:58:53.880Z,100399.09
